sensor_id;sensor_type;location;lat;lon;timestamp;temperature;humidity
11989;DHT22;6054;50.966;7.094;2023-08-20T00:01:22;31.20;54.20
11989;DHT22;6054;50.966;7.094;2023-08-20T00:03:50;31.10;54.10
11989;DHT22;6054;50.966;7.094;2023-08-20T00:06:18;31.10;54.00
11989;DHT22;6054;50.966;7.094;2023-08-20T00:08:45;31.10;54.00
11989;DHT22;6054;50.966;7.094;2023-08-20T00:11:14;31.10;54.10
11989;DHT22;6054;50.966;7.094;2023-08-20T00:13:41;31.30;54.10
11989;DHT22;6054;50.966;7.094;2023-08-20T00:16:09;31.20;54.00
11989;DHT22;6054;50.966;7.094;2023-08-20T00:18:37;31.00;54.30
11989;DHT22;6054;50.966;7.094;2023-08-20T00:21:04;31.00;54.20
11989;DHT22;6054;50.966;7.094;2023-08-20T00:23:31;31.00;54.10
11989;DHT22;6054;50.966;7.094;2023-08-20T00:25:59;31.00;54.20
11989;DHT22;6054;50.966;7.094;2023-08-20T00:28:27;31.00;54.30
11989;DHT22;6054;50.966;7.094;2023-08-20T00:30:54;30.90;53.40
11989;DHT22;6054;50.966;7.094;2023-08-20T00:33:21;31.00;53.70
11989;DHT22;6054;50.966;7.094;2023-08-20T00:35:47;31.00;53.60
11989;DHT22;6054;50.966;7.094;2023-08-20T00:38:14;30.90;53.40
11989;DHT22;6054;50.966;7.094;2023-08-20T00:40:41;30.90;53.50
11989;DHT22;6054;50.966;7.094;2023-08-20T00:43:07;31.10;54.00
11989;DHT22;6054;50.966;7.094;2023-08-20T00:45:35;30.80;53.80
11989;DHT22;6054;50.966;7.094;2023-08-20T00:48:03;30.80;54.00
11989;DHT22;6054;50.966;7.094;2023-08-20T00:50:31;30.80;54.70
11989;DHT22;6054;50.966;7.094;2023-08-20T00:52:58;30.80;54.10
11989;DHT22;6054;50.966;7.094;2023-08-20T00:55:24;30.90;54.30
11989;DHT22;6054;50.966;7.094;2023-08-20T00:57:51;30.70;54.10
11989;DHT22;6054;50.966;7.094;2023-08-20T01:00:18;30.80;54.40
11989;DHT22;6054;50.966;7.094;2023-08-20T01:02:47;30.90;54.90
11989;DHT22;6054;50.966;7.094;2023-08-20T01:05:14;30.70;54.10
11989;DHT22;6054;50.966;7.094;2023-08-20T01:08:00;30.90;54.50
11989;DHT22;6054;50.966;7.094;2023-08-20T01:10:36;30.70;54.70
11989;DHT22;6054;50.966;7.094;2023-08-20T01:13:07;30.70;54.70
11989;DHT22;6054;50.966;7.094;2023-08-20T01:15:34;30.60;54.50
11989;DHT22;6054;50.966;7.094;2023-08-20T01:18:02;30.60;54.60
11989;DHT22;6054;50.966;7.094;2023-08-20T01:20:35;30.60;54.50
11989;DHT22;6054;50.966;7.094;2023-08-20T01:23:24;30.60;54.60
11989;DHT22;6054;50.966;7.094;2023-08-20T01:26:12;30.60;54.70
11989;DHT22;6054;50.966;7.094;2023-08-20T01:28:45;30.50;54.60
11989;DHT22;6054;50.966;7.094;2023-08-20T01:31:12;30.50;54.40
11989;DHT22;6054;50.966;7.094;2023-08-20T01:33:40;30.60;54.80
11989;DHT22;6054;50.966;7.094;2023-08-20T01:36:08;30.50;54.50
11989;DHT22;6054;50.966;7.094;2023-08-20T01:38:35;30.40;54.50
11989;DHT22;6054;50.966;7.094;2023-08-20T01:41:03;30.60;54.30
11989;DHT22;6054;50.966;7.094;2023-08-20T01:43:31;30.40;53.60
11989;DHT22;6054;50.966;7.094;2023-08-20T01:49:32;30.30;54.90
11989;DHT22;6054;50.966;7.094;2023-08-20T01:51:59;30.40;54.40
11989;DHT22;6054;50.966;7.094;2023-08-20T01:54:26;30.30;54.30
11989;DHT22;6054;50.966;7.094;2023-08-20T01:56:52;30.40;54.40
11989;DHT22;6054;50.966;7.094;2023-08-20T01:59:21;30.40;54.40
11989;DHT22;6054;50.966;7.094;2023-08-20T02:01:48;30.20;54.60
11989;DHT22;6054;50.966;7.094;2023-08-20T02:04:15;30.20;54.30
11989;DHT22;6054;50.966;7.094;2023-08-20T02:06:43;30.20;54.60
11989;DHT22;6054;50.966;7.094;2023-08-20T02:09:09;30.10;54.50
11989;DHT22;6054;50.966;7.094;2023-08-20T02:11:36;30.10;54.50
11989;DHT22;6054;50.966;7.094;2023-08-20T02:14:03;30.10;54.40
11989;DHT22;6054;50.966;7.094;2023-08-20T02:16:30;30.10;54.70
11989;DHT22;6054;50.966;7.094;2023-08-20T02:18:57;30.10;54.90
11989;DHT22;6054;50.966;7.094;2023-08-20T02:21:23;30.00;55.00
11989;DHT22;6054;50.966;7.094;2023-08-20T02:23:51;30.10;55.00
11989;DHT22;6054;50.966;7.094;2023-08-20T02:26:18;30.10;55.10
11989;DHT22;6054;50.966;7.094;2023-08-20T02:28:45;30.10;55.10
11989;DHT22;6054;50.966;7.094;2023-08-20T02:31:11;30.10;55.40
11989;DHT22;6054;50.966;7.094;2023-08-20T02:33:38;30.00;55.20
11989;DHT22;6054;50.966;7.094;2023-08-20T02:36:05;30.00;55.30
11989;DHT22;6054;50.966;7.094;2023-08-20T02:38:32;30.00;55.20
11989;DHT22;6054;50.966;7.094;2023-08-20T02:41:00;30.10;55.10
11989;DHT22;6054;50.966;7.094;2023-08-20T02:43:28;30.00;55.40
11989;DHT22;6054;50.966;7.094;2023-08-20T02:45:55;29.90;55.20
11989;DHT22;6054;50.966;7.094;2023-08-20T02:48:21;29.90;55.20
11989;DHT22;6054;50.966;7.094;2023-08-20T02:50:52;29.90;55.60
11989;DHT22;6054;50.966;7.094;2023-08-20T02:53:19;30.00;55.30
11989;DHT22;6054;50.966;7.094;2023-08-20T02:55:45;29.90;55.30
11989;DHT22;6054;50.966;7.094;2023-08-20T02:58:13;29.90;55.00
11989;DHT22;6054;50.966;7.094;2023-08-20T03:00:41;29.90;55.20
11989;DHT22;6054;50.966;7.094;2023-08-20T03:03:08;29.90;55.10
11989;DHT22;6054;50.966;7.094;2023-08-20T03:05:35;30.00;55.10
11989;DHT22;6054;50.966;7.094;2023-08-20T03:08:02;29.90;55.10
11989;DHT22;6054;50.966;7.094;2023-08-20T03:10:30;29.90;55.10
11989;DHT22;6054;50.966;7.094;2023-08-20T03:12:57;29.80;55.10
11989;DHT22;6054;50.966;7.094;2023-08-20T03:15:25;29.90;54.80
11989;DHT22;6054;50.966;7.094;2023-08-20T03:17:52;29.80;54.80
11989;DHT22;6054;50.966;7.094;2023-08-20T03:20:19;29.80;55.00
11989;DHT22;6054;50.966;7.094;2023-08-20T03:22:45;29.80;54.90
11989;DHT22;6054;50.966;7.094;2023-08-20T03:25:12;29.90;55.30
11989;DHT22;6054;50.966;7.094;2023-08-20T03:27:39;29.70;55.50
11989;DHT22;6054;50.966;7.094;2023-08-20T03:30:07;29.80;55.40
11989;DHT22;6054;50.966;7.094;2023-08-20T03:32:35;29.70;55.70
11989;DHT22;6054;50.966;7.094;2023-08-20T03:35:02;29.80;55.60
11989;DHT22;6054;50.966;7.094;2023-08-20T03:37:29;29.70;55.30
11989;DHT22;6054;50.966;7.094;2023-08-20T03:39:55;29.60;55.60
11989;DHT22;6054;50.966;7.094;2023-08-20T03:42:22;29.60;55.40
11989;DHT22;6054;50.966;7.094;2023-08-20T03:44:49;29.60;55.40
11989;DHT22;6054;50.966;7.094;2023-08-20T03:47:15;29.70;55.30
11989;DHT22;6054;50.966;7.094;2023-08-20T03:49:47;29.80;55.40
11989;DHT22;6054;50.966;7.094;2023-08-20T03:52:14;29.60;55.40
11989;DHT22;6054;50.966;7.094;2023-08-20T03:54:41;29.70;55.20
11989;DHT22;6054;50.966;7.094;2023-08-20T03:57:08;29.50;55.20
11989;DHT22;6054;50.966;7.094;2023-08-20T03:59:34;29.50;55.20
11989;DHT22;6054;50.966;7.094;2023-08-20T04:02:01;29.50;55.30
11989;DHT22;6054;50.966;7.094;2023-08-20T04:04:28;29.50;55.50
11989;DHT22;6054;50.966;7.094;2023-08-20T04:06:56;29.50;55.30
11989;DHT22;6054;50.966;7.094;2023-08-20T04:09:23;29.40;55.10
11989;DHT22;6054;50.966;7.094;2023-08-20T04:11:50;29.60;55.30
11989;DHT22;6054;50.966;7.094;2023-08-20T04:14:16;29.40;55.30
11989;DHT22;6054;50.966;7.094;2023-08-20T04:16:43;29.40;55.50
11989;DHT22;6054;50.966;7.094;2023-08-20T04:19:10;29.40;55.40
11989;DHT22;6054;50.966;7.094;2023-08-20T04:21:37;29.30;55.30
11989;DHT22;6054;50.966;7.094;2023-08-20T04:24:05;29.40;55.50
11989;DHT22;6054;50.966;7.094;2023-08-20T04:26:32;29.40;55.70
11989;DHT22;6054;50.966;7.094;2023-08-20T04:29:00;29.40;55.60
11989;DHT22;6054;50.966;7.094;2023-08-20T04:31:27;29.30;55.60
11989;DHT22;6054;50.966;7.094;2023-08-20T04:33:54;29.30;55.50
11989;DHT22;6054;50.966;7.094;2023-08-20T04:36:20;29.30;55.40
11989;DHT22;6054;50.966;7.094;2023-08-20T04:38:47;29.30;55.20
11989;DHT22;6054;50.966;7.094;2023-08-20T04:41:15;29.30;55.40
11989;DHT22;6054;50.966;7.094;2023-08-20T04:43:42;29.30;55.40
11989;DHT22;6054;50.966;7.094;2023-08-20T04:46:08;29.60;55.70
11989;DHT22;6054;50.966;7.094;2023-08-20T04:48:35;29.40;55.50
11989;DHT22;6054;50.966;7.094;2023-08-20T04:51:02;29.30;55.40
11989;DHT22;6054;50.966;7.094;2023-08-20T04:53:29;29.20;55.50
11989;DHT22;6054;50.966;7.094;2023-08-20T04:55:57;29.30;55.60
11989;DHT22;6054;50.966;7.094;2023-08-20T04:58:25;29.20;55.70
11989;DHT22;6054;50.966;7.094;2023-08-20T05:00:52;29.20;55.50
11989;DHT22;6054;50.966;7.094;2023-08-20T05:03:19;29.10;55.40
11989;DHT22;6054;50.966;7.094;2023-08-20T05:05:49;29.40;55.80
11989;DHT22;6054;50.966;7.094;2023-08-20T05:08:16;29.10;55.90
11989;DHT22;6054;50.966;7.094;2023-08-20T05:10:42;29.10;55.70
11989;DHT22;6054;50.966;7.094;2023-08-20T05:13:09;29.10;55.80
11989;DHT22;6054;50.966;7.094;2023-08-20T05:15:38;29.10;55.90
11989;DHT22;6054;50.966;7.094;2023-08-20T05:18:05;29.10;56.10
11989;DHT22;6054;50.966;7.094;2023-08-20T05:20:31;29.10;56.10
11989;DHT22;6054;50.966;7.094;2023-08-20T05:22:58;29.10;55.90
11989;DHT22;6054;50.966;7.094;2023-08-20T05:25:25;29.10;56.00
11989;DHT22;6054;50.966;7.094;2023-08-20T05:27:51;29.10;56.00
11989;DHT22;6054;50.966;7.094;2023-08-20T05:30:18;29.10;56.10
11989;DHT22;6054;50.966;7.094;2023-08-20T05:32:46;29.10;56.20
11989;DHT22;6054;50.966;7.094;2023-08-20T05:35:13;29.40;56.50
11989;DHT22;6054;50.966;7.094;2023-08-20T05:37:40;29.10;56.20
11989;DHT22;6054;50.966;7.094;2023-08-20T05:40:08;29.10;56.30
11989;DHT22;6054;50.966;7.094;2023-08-20T05:42:35;29.10;56.70
11989;DHT22;6054;50.966;7.094;2023-08-20T05:45:02;29.40;56.70
11989;DHT22;6054;50.966;7.094;2023-08-20T05:47:29;29.10;56.70
11989;DHT22;6054;50.966;7.094;2023-08-20T05:49:57;29.20;56.70
11989;DHT22;6054;50.966;7.094;2023-08-20T05:52:24;29.10;56.60
11989;DHT22;6054;50.966;7.094;2023-08-20T05:54:50;29.30;56.80
11989;DHT22;6054;50.966;7.094;2023-08-20T05:57:17;29.20;56.80
11989;DHT22;6054;50.966;7.094;2023-08-20T05:59:44;29.30;56.90
11989;DHT22;6054;50.966;7.094;2023-08-20T06:02:15;29.30;57.10
11989;DHT22;6054;50.966;7.094;2023-08-20T06:04:42;29.30;57.30
11989;DHT22;6054;50.966;7.094;2023-08-20T06:07:11;29.40;57.00
11989;DHT22;6054;50.966;7.094;2023-08-20T06:09:37;29.70;57.30
11989;DHT22;6054;50.966;7.094;2023-08-20T06:12:04;29.40;57.10
11989;DHT22;6054;50.966;7.094;2023-08-20T06:14:31;29.50;57.50
11989;DHT22;6054;50.966;7.094;2023-08-20T06:16:58;29.70;57.50
11989;DHT22;6054;50.966;7.094;2023-08-20T06:19:25;29.90;57.30
11989;DHT22;6054;50.966;7.094;2023-08-20T06:21:52;30.00;57.80
11989;DHT22;6054;50.966;7.094;2023-08-20T06:24:20;30.00;57.70
11989;DHT22;6054;50.966;7.094;2023-08-20T06:26:47;30.00;57.30
11989;DHT22;6054;50.966;7.094;2023-08-20T06:29:13;29.90;57.30
11989;DHT22;6054;50.966;7.094;2023-08-20T06:31:40;30.00;57.20
11989;DHT22;6054;50.966;7.094;2023-08-20T06:34:07;30.30;57.40
11989;DHT22;6054;50.966;7.094;2023-08-20T06:36:34;30.20;56.90
11989;DHT22;6054;50.966;7.094;2023-08-20T06:39:00;30.20;56.60
11989;DHT22;6054;50.966;7.094;2023-08-20T06:41:28;30.20;56.70
11989;DHT22;6054;50.966;7.094;2023-08-20T06:43:55;30.40;56.80
11989;DHT22;6054;50.966;7.094;2023-08-20T06:46:22;30.40;56.50
11989;DHT22;6054;50.966;7.094;2023-08-20T06:48:48;30.40;56.60
11989;DHT22;6054;50.966;7.094;2023-08-20T06:51:18;30.50;56.50
11989;DHT22;6054;50.966;7.094;2023-08-20T06:53:45;30.50;56.70
11989;DHT22;6054;50.966;7.094;2023-08-20T06:56:12;30.70;56.60
11989;DHT22;6054;50.966;7.094;2023-08-20T06:58:42;30.70;56.30
11989;DHT22;6054;50.966;7.094;2023-08-20T07:01:09;30.70;56.50
11989;DHT22;6054;50.966;7.094;2023-08-20T07:03:38;30.90;56.30
11989;DHT22;6054;50.966;7.094;2023-08-20T07:06:06;30.80;56.30
11989;DHT22;6054;50.966;7.094;2023-08-20T07:08:33;30.90;56.30
11989;DHT22;6054;50.966;7.094;2023-08-20T07:10:59;31.00;56.10
11989;DHT22;6054;50.966;7.094;2023-08-20T07:13:26;31.00;55.90
11989;DHT22;6054;50.966;7.094;2023-08-20T07:15:54;31.00;56.00
11989;DHT22;6054;50.966;7.094;2023-08-20T07:18:21;31.10;56.00
11989;DHT22;6054;50.966;7.094;2023-08-20T07:20:50;31.10;56.50
11989;DHT22;6054;50.966;7.094;2023-08-20T07:23:17;31.20;56.10
11989;DHT22;6054;50.966;7.094;2023-08-20T07:25:44;31.40;56.00
11989;DHT22;6054;50.966;7.094;2023-08-20T07:28:12;31.30;56.00
11989;DHT22;6054;50.966;7.094;2023-08-20T07:30:39;31.40;56.10
11989;DHT22;6054;50.966;7.094;2023-08-20T07:33:07;31.70;55.90
11989;DHT22;6054;50.966;7.094;2023-08-20T07:35:34;31.50;55.80
11989;DHT22;6054;50.966;7.094;2023-08-20T07:38:01;31.70;56.00
11989;DHT22;6054;50.966;7.094;2023-08-20T07:40:28;31.70;55.90
11989;DHT22;6054;50.966;7.094;2023-08-20T07:42:54;31.90;56.00
11989;DHT22;6054;50.966;7.094;2023-08-20T07:45:21;31.70;55.60
11989;DHT22;6054;50.966;7.094;2023-08-20T07:47:48;31.80;55.00
11989;DHT22;6054;50.966;7.094;2023-08-20T07:50:16;31.90;54.70
11989;DHT22;6054;50.966;7.094;2023-08-20T07:52:43;31.90;54.60
11989;DHT22;6054;50.966;7.094;2023-08-20T07:55:09;32.00;54.70
11989;DHT22;6054;50.966;7.094;2023-08-20T07:57:36;32.00;54.40
11989;DHT22;6054;50.966;7.094;2023-08-20T08:00:04;32.10;54.50
11989;DHT22;6054;50.966;7.094;2023-08-20T08:02:31;32.10;54.40
11989;DHT22;6054;50.966;7.094;2023-08-20T08:04:57;32.20;54.00
11989;DHT22;6054;50.966;7.094;2023-08-20T08:07:26;32.20;53.70
11989;DHT22;6054;50.966;7.094;2023-08-20T08:09:52;32.30;53.40
11989;DHT22;6054;50.966;7.094;2023-08-20T08:12:19;32.40;53.30
11989;DHT22;6054;50.966;7.094;2023-08-20T08:14:46;32.50;53.40
11989;DHT22;6054;50.966;7.094;2023-08-20T08:17:14;32.50;53.60
11989;DHT22;6054;50.966;7.094;2023-08-20T08:19:40;32.60;53.30
11989;DHT22;6054;50.966;7.094;2023-08-20T08:22:07;32.60;52.80
11989;DHT22;6054;50.966;7.094;2023-08-20T08:24:35;32.70;52.60
11989;DHT22;6054;50.966;7.094;2023-08-20T08:27:02;32.70;52.10
11989;DHT22;6054;50.966;7.094;2023-08-20T08:29:29;32.80;52.10
11989;DHT22;6054;50.966;7.094;2023-08-20T08:31:55;32.90;51.80
11989;DHT22;6054;50.966;7.094;2023-08-20T08:34:22;32.90;51.40
11989;DHT22;6054;50.966;7.094;2023-08-20T08:36:49;33.10;51.10
11989;DHT22;6054;50.966;7.094;2023-08-20T08:39:16;33.00;50.50
11989;DHT22;6054;50.966;7.094;2023-08-20T08:41:45;33.00;50.40
11989;DHT22;6054;50.966;7.094;2023-08-20T08:44:13;33.10;50.80
11989;DHT22;6054;50.966;7.094;2023-08-20T08:46:40;33.10;50.70
11989;DHT22;6054;50.966;7.094;2023-08-20T08:49:08;33.20;50.80
11989;DHT22;6054;50.966;7.094;2023-08-20T08:51:36;33.20;50.60
11989;DHT22;6054;50.966;7.094;2023-08-20T08:54:03;33.40;50.60
11989;DHT22;6054;50.966;7.094;2023-08-20T08:56:30;33.40;50.70
11989;DHT22;6054;50.966;7.094;2023-08-20T08:58:59;33.70;50.60
11989;DHT22;6054;50.966;7.094;2023-08-20T09:01:26;33.60;50.00
11989;DHT22;6054;50.966;7.094;2023-08-20T09:03:53;33.70;49.80
11989;DHT22;6054;50.966;7.094;2023-08-20T09:06:19;33.70;49.30
11989;DHT22;6054;50.966;7.094;2023-08-20T09:08:47;33.90;49.60
11989;DHT22;6054;50.966;7.094;2023-08-20T09:11:13;34.00;49.20
11989;DHT22;6054;50.966;7.094;2023-08-20T09:13:42;34.00;48.80
11989;DHT22;6054;50.966;7.094;2023-08-20T09:16:11;34.10;48.80
11989;DHT22;6054;50.966;7.094;2023-08-20T09:18:38;34.20;48.80
11989;DHT22;6054;50.966;7.094;2023-08-20T09:21:07;34.20;48.80
11989;DHT22;6054;50.966;7.094;2023-08-20T09:23:34;34.30;48.20
11989;DHT22;6054;50.966;7.094;2023-08-20T09:26:02;34.40;48.40
11989;DHT22;6054;50.966;7.094;2023-08-20T09:28:30;34.40;48.80
11989;DHT22;6054;50.966;7.094;2023-08-20T09:31:06;34.50;48.80
11989;DHT22;6054;50.966;7.094;2023-08-20T09:33:34;34.60;48.40
11989;DHT22;6054;50.966;7.094;2023-08-20T09:36:02;34.60;48.30
11989;DHT22;6054;50.966;7.094;2023-08-20T09:38:29;34.70;48.50
11989;DHT22;6054;50.966;7.094;2023-08-20T09:40:56;34.80;48.00
11989;DHT22;6054;50.966;7.094;2023-08-20T09:43:24;34.90;47.10
11989;DHT22;6054;50.966;7.094;2023-08-20T09:45:55;35.00;47.00
11989;DHT22;6054;50.966;7.094;2023-08-20T09:48:24;35.10;47.30
11989;DHT22;6054;50.966;7.094;2023-08-20T09:50:59;35.20;46.70
11989;DHT22;6054;50.966;7.094;2023-08-20T09:53:27;35.20;45.90
11989;DHT22;6054;50.966;7.094;2023-08-20T09:56:09;35.30;45.80
11989;DHT22;6054;50.966;7.094;2023-08-20T09:58:37;35.30;46.30
11989;DHT22;6054;50.966;7.094;2023-08-20T10:01:04;35.40;46.30
11989;DHT22;6054;50.966;7.094;2023-08-20T10:03:31;35.50;46.50
11989;DHT22;6054;50.966;7.094;2023-08-20T10:06:00;35.60;45.70
11989;DHT22;6054;50.966;7.094;2023-08-20T10:08:27;35.60;45.10
11989;DHT22;6054;50.966;7.094;2023-08-20T10:10:54;35.70;44.90
11989;DHT22;6054;50.966;7.094;2023-08-20T10:13:21;35.70;44.70
11989;DHT22;6054;50.966;7.094;2023-08-20T10:15:48;35.70;45.00
11989;DHT22;6054;50.966;7.094;2023-08-20T10:18:19;35.90;44.90
11989;DHT22;6054;50.966;7.094;2023-08-20T10:20:45;36.00;44.60
11989;DHT22;6054;50.966;7.094;2023-08-20T10:23:14;36.20;44.30
11989;DHT22;6054;50.966;7.094;2023-08-20T10:25:42;36.10;44.00
11989;DHT22;6054;50.966;7.094;2023-08-20T10:28:19;36.10;44.60
11989;DHT22;6054;50.966;7.094;2023-08-20T10:31:11;36.10;44.70
11989;DHT22;6054;50.966;7.094;2023-08-20T10:33:48;36.10;44.10
11989;DHT22;6054;50.966;7.094;2023-08-20T10:36:17;36.20;43.70
11989;DHT22;6054;50.966;7.094;2023-08-20T10:38:49;36.30;43.40
11989;DHT22;6054;50.966;7.094;2023-08-20T10:41:24;36.30;42.90
11989;DHT22;6054;50.966;7.094;2023-08-20T10:43:51;36.30;43.30
11989;DHT22;6054;50.966;7.094;2023-08-20T10:46:19;36.20;43.10
11989;DHT22;6054;50.966;7.094;2023-08-20T10:48:48;36.20;43.30
11989;DHT22;6054;50.966;7.094;2023-08-20T10:51:16;36.20;43.30
11989;DHT22;6054;50.966;7.094;2023-08-20T10:54:02;36.10;43.40
11989;DHT22;6054;50.966;7.094;2023-08-20T10:56:39;36.10;43.70
11989;DHT22;6054;50.966;7.094;2023-08-20T10:59:08;36.20;43.80
11989;DHT22;6054;50.966;7.094;2023-08-20T11:01:35;36.10;43.20
11989;DHT22;6054;50.966;7.094;2023-08-20T11:04:02;36.20;43.70
11989;DHT22;6054;50.966;7.094;2023-08-20T11:06:33;36.20;44.10
11989;DHT22;6054;50.966;7.094;2023-08-20T11:09:02;36.30;44.00
11989;DHT22;6054;50.966;7.094;2023-08-20T11:11:31;36.40;43.10
11989;DHT22;6054;50.966;7.094;2023-08-20T11:14:04;36.50;42.00
11989;DHT22;6054;50.966;7.094;2023-08-20T11:16:31;36.50;41.80
11989;DHT22;6054;50.966;7.094;2023-08-20T11:18:58;36.60;41.50
11989;DHT22;6054;50.966;7.094;2023-08-20T11:21:25;36.50;41.20
11989;DHT22;6054;50.966;7.094;2023-08-20T11:23:52;36.60;41.10
11989;DHT22;6054;50.966;7.094;2023-08-20T11:26:21;36.50;41.00
11989;DHT22;6054;50.966;7.094;2023-08-20T11:28:48;36.60;41.20
11989;DHT22;6054;50.966;7.094;2023-08-20T11:31:15;36.60;41.10
11989;DHT22;6054;50.966;7.094;2023-08-20T11:33:42;36.70;41.20
11989;DHT22;6054;50.966;7.094;2023-08-20T11:36:09;36.70;40.90
11989;DHT22;6054;50.966;7.094;2023-08-20T11:38:36;36.70;40.60
11989;DHT22;6054;50.966;7.094;2023-08-20T11:41:02;36.80;41.20
11989;DHT22;6054;50.966;7.094;2023-08-20T11:43:31;36.70;41.50
11989;DHT22;6054;50.966;7.094;2023-08-20T11:45:57;36.80;41.80
11989;DHT22;6054;50.966;7.094;2023-08-20T11:48:24;36.80;42.00
11989;DHT22;6054;50.966;7.094;2023-08-20T11:50:51;36.90;42.20
11989;DHT22;6054;50.966;7.094;2023-08-20T11:53:21;36.90;41.70
11989;DHT22;6054;50.966;7.094;2023-08-20T11:55:49;37.00;41.20
11989;DHT22;6054;50.966;7.094;2023-08-20T11:58:15;37.00;40.80
11989;DHT22;6054;50.966;7.094;2023-08-20T12:00:48;37.00;40.70
11989;DHT22;6054;50.966;7.094;2023-08-20T12:03:17;37.10;40.20
11989;DHT22;6054;50.966;7.094;2023-08-20T12:05:44;37.20;40.40
11989;DHT22;6054;50.966;7.094;2023-08-20T12:08:15;37.20;39.90
11989;DHT22;6054;50.966;7.094;2023-08-20T12:10:43;37.30;40.50
11989;DHT22;6054;50.966;7.094;2023-08-20T12:13:10;37.30;39.90
11989;DHT22;6054;50.966;7.094;2023-08-20T12:15:37;37.30;39.20
11989;DHT22;6054;50.966;7.094;2023-08-20T12:18:05;37.30;39.40
11989;DHT22;6054;50.966;7.094;2023-08-20T12:20:34;37.30;40.10
11989;DHT22;6054;50.966;7.094;2023-08-20T12:23:02;37.30;39.80
11989;DHT22;6054;50.966;7.094;2023-08-20T12:25:32;37.40;39.70
11989;DHT22;6054;50.966;7.094;2023-08-20T12:27:59;37.40;39.70
11989;DHT22;6054;50.966;7.094;2023-08-20T12:30:26;37.50;39.30
11989;DHT22;6054;50.966;7.094;2023-08-20T12:32:53;37.50;39.10
11989;DHT22;6054;50.966;7.094;2023-08-20T12:35:21;37.50;39.40
11989;DHT22;6054;50.966;7.094;2023-08-20T12:37:47;37.60;39.10
11989;DHT22;6054;50.966;7.094;2023-08-20T12:40:14;37.60;39.20
11989;DHT22;6054;50.966;7.094;2023-08-20T12:42:41;37.70;40.20
11989;DHT22;6054;50.966;7.094;2023-08-20T12:45:08;37.80;40.00
11989;DHT22;6054;50.966;7.094;2023-08-20T12:47:35;37.90;39.30
11989;DHT22;6054;50.966;7.094;2023-08-20T12:50:03;37.90;39.00
11989;DHT22;6054;50.966;7.094;2023-08-20T12:52:32;38.00;38.70
11989;DHT22;6054;50.966;7.094;2023-08-20T12:54:59;38.10;38.40
11989;DHT22;6054;50.966;7.094;2023-08-20T12:57:25;38.40;37.80
11989;DHT22;6054;50.966;7.094;2023-08-20T12:59:52;38.40;38.00
11989;DHT22;6054;50.966;7.094;2023-08-20T13:02:19;38.50;37.60
11989;DHT22;6054;50.966;7.094;2023-08-20T13:04:47;38.60;37.50
11989;DHT22;6054;50.966;7.094;2023-08-20T13:07:14;38.60;37.30
11989;DHT22;6054;50.966;7.094;2023-08-20T13:09:43;38.60;36.70
11989;DHT22;6054;50.966;7.094;2023-08-20T13:12:11;38.60;36.60
11989;DHT22;6054;50.966;7.094;2023-08-20T13:14:39;38.60;36.60
11989;DHT22;6054;50.966;7.094;2023-08-20T13:17:07;38.50;36.40
11989;DHT22;6054;50.966;7.094;2023-08-20T13:19:35;38.40;36.70
11989;DHT22;6054;50.966;7.094;2023-08-20T13:22:02;38.40;36.80
11989;DHT22;6054;50.966;7.094;2023-08-20T13:24:29;38.30;36.60
11989;DHT22;6054;50.966;7.094;2023-08-20T13:26:57;38.30;36.40
11989;DHT22;6054;50.966;7.094;2023-08-20T13:29:23;38.30;36.30
11989;DHT22;6054;50.966;7.094;2023-08-20T13:31:50;38.20;36.60
11989;DHT22;6054;50.966;7.094;2023-08-20T13:34:17;38.10;36.90
11989;DHT22;6054;50.966;7.094;2023-08-20T13:36:43;38.10;38.50
11989;DHT22;6054;50.966;7.094;2023-08-20T13:39:11;38.10;39.20
11989;DHT22;6054;50.966;7.094;2023-08-20T13:41:40;38.10;39.40
11989;DHT22;6054;50.966;7.094;2023-08-20T13:44:08;38.20;39.00
11989;DHT22;6054;50.966;7.094;2023-08-20T13:46:35;38.20;38.10
11989;DHT22;6054;50.966;7.094;2023-08-20T13:49:02;38.30;37.90
11989;DHT22;6054;50.966;7.094;2023-08-20T13:51:29;38.30;37.70
11989;DHT22;6054;50.966;7.094;2023-08-20T13:53:56;38.40;37.80
11989;DHT22;6054;50.966;7.094;2023-08-20T13:56:23;38.30;37.70
11989;DHT22;6054;50.966;7.094;2023-08-20T13:58:51;38.30;37.90
11989;DHT22;6054;50.966;7.094;2023-08-20T14:01:19;38.40;37.40
11989;DHT22;6054;50.966;7.094;2023-08-20T14:03:45;38.40;37.00
11989;DHT22;6054;50.966;7.094;2023-08-20T14:06:12;38.50;37.40
11989;DHT22;6054;50.966;7.094;2023-08-20T14:08:39;38.50;37.50
11989;DHT22;6054;50.966;7.094;2023-08-20T14:11:06;38.60;37.30
11989;DHT22;6054;50.966;7.094;2023-08-20T14:13:32;38.70;37.10
11989;DHT22;6054;50.966;7.094;2023-08-20T14:15:59;38.80;36.80
11989;DHT22;6054;50.966;7.094;2023-08-20T14:18:27;39.00;36.80
11989;DHT22;6054;50.966;7.094;2023-08-20T14:20:54;38.90;37.00
11989;DHT22;6054;50.966;7.094;2023-08-20T14:23:21;38.90;36.60
11989;DHT22;6054;50.966;7.094;2023-08-20T14:25:48;38.90;36.20
11989;DHT22;6054;50.966;7.094;2023-08-20T14:28:15;39.00;35.90
11989;DHT22;6054;50.966;7.094;2023-08-20T14:30:41;38.90;36.50
11989;DHT22;6054;50.966;7.094;2023-08-20T14:33:08;38.90;36.40
11989;DHT22;6054;50.966;7.094;2023-08-20T14:35:36;38.90;36.10
11989;DHT22;6054;50.966;7.094;2023-08-20T14:38:03;38.90;36.60
11989;DHT22;6054;50.966;7.094;2023-08-20T14:40:30;38.90;36.50
11989;DHT22;6054;50.966;7.094;2023-08-20T14:42:59;38.90;35.80
11989;DHT22;6054;50.966;7.094;2023-08-20T14:45:26;38.80;35.80
11989;DHT22;6054;50.966;7.094;2023-08-20T14:47:53;38.80;35.40
11989;DHT22;6054;50.966;7.094;2023-08-20T14:50:19;38.70;35.60
11989;DHT22;6054;50.966;7.094;2023-08-20T14:52:47;38.70;35.80
11989;DHT22;6054;50.966;7.094;2023-08-20T14:55:17;38.80;35.80
11989;DHT22;6054;50.966;7.094;2023-08-20T14:57:44;38.80;35.60
11989;DHT22;6054;50.966;7.094;2023-08-20T15:00:11;38.80;35.60
11989;DHT22;6054;50.966;7.094;2023-08-20T15:02:39;38.80;36.00
11989;DHT22;6054;50.966;7.094;2023-08-20T15:05:06;38.90;35.70
11989;DHT22;6054;50.966;7.094;2023-08-20T15:07:33;38.80;35.90
11989;DHT22;6054;50.966;7.094;2023-08-20T15:10:02;38.90;36.10
11989;DHT22;6054;50.966;7.094;2023-08-20T15:12:28;38.80;36.20
11989;DHT22;6054;50.966;7.094;2023-08-20T15:14:55;38.80;35.90
11989;DHT22;6054;50.966;7.094;2023-08-20T15:17:22;38.80;35.90
11989;DHT22;6054;50.966;7.094;2023-08-20T15:19:49;38.80;36.00
11989;DHT22;6054;50.966;7.094;2023-08-20T15:22:15;38.70;36.00
11989;DHT22;6054;50.966;7.094;2023-08-20T15:24:42;38.70;36.10
11989;DHT22;6054;50.966;7.094;2023-08-20T15:27:10;38.70;35.90
11989;DHT22;6054;50.966;7.094;2023-08-20T15:29:37;38.60;36.10
11989;DHT22;6054;50.966;7.094;2023-08-20T15:32:04;38.60;35.90
11989;DHT22;6054;50.966;7.094;2023-08-20T15:34:31;38.60;35.50
11989;DHT22;6054;50.966;7.094;2023-08-20T15:36:58;38.60;35.70
11989;DHT22;6054;50.966;7.094;2023-08-20T15:39:24;38.60;36.60
11989;DHT22;6054;50.966;7.094;2023-08-20T15:41:52;38.70;36.90
11989;DHT22;6054;50.966;7.094;2023-08-20T15:44:20;38.70;35.60
11989;DHT22;6054;50.966;7.094;2023-08-20T15:46:47;38.60;34.90
11989;DHT22;6054;50.966;7.094;2023-08-20T15:49:14;38.80;35.40
11989;DHT22;6054;50.966;7.094;2023-08-20T15:51:40;38.70;34.80